sensor_id;sensor_type;location;lat;lon;timestamp;pressure;altitude;pressure_sealevel;temperature;humidity
17936;BME280;9093;52.062;4.508;2023-02-04T00:00:23;103655.53;;;8.82;77.95
17936;BME280;9093;52.062;4.508;2023-02-04T00:03:03;103657.31;;;8.85;77.84
17936;BME280;9093;52.062;4.508;2023-02-04T00:05:43;103663.53;;;8.84;77.81
17936;BME280;9093;52.062;4.508;2023-02-04T00:08:24;103652.88;;;8.82;77.81
17936;BME280;9093;52.062;4.508;2023-02-04T00:11:04;103661.75;;;8.84;77.74
17936;BME280;9093;52.062;4.508;2023-02-04T00:13:45;103660.84;;;8.85;78.01
17936;BME280;9093;52.062;4.508;2023-02-04T00:16:25;103660.84;;;8.87;77.90
17936;BME280;9093;52.062;4.508;2023-02-04T00:19:05;103667.94;;;8.88;77.62
17936;BME280;9093;52.062;4.508;2023-02-04T00:21:45;103663.50;;;8.85;78.02
17936;BME280;9093;52.062;4.508;2023-02-04T00:24:26;103672.41;;;8.84;77.65
17936;BME280;9093;52.062;4.508;2023-02-04T00:27:06;103665.31;;;8.83;78.28
17936;BME280;9093;52.062;4.508;2023-02-04T00:29:46;103655.50;;;8.85;77.91
17936;BME280;9093;52.062;4.508;2023-02-04T00:32:27;103661.75;;;8.87;78.13
17936;BME280;9093;52.062;4.508;2023-02-04T00:35:07;103660.84;;;8.90;77.97
17936;BME280;9093;52.062;4.508;2023-02-04T00:37:48;103671.50;;;8.90;77.91
17936;BME280;9093;52.062;4.508;2023-02-04T00:40:29;103668.81;;;8.92;77.77
17936;BME280;9093;52.062;4.508;2023-02-04T00:43:09;103667.03;;;8.92;77.96
17936;BME280;9093;52.062;4.508;2023-02-04T00:45:49;103668.81;;;8.92;77.78
17936;BME280;9093;52.062;4.508;2023-02-04T00:48:29;103662.59;;;8.93;77.95
17936;BME280;9093;52.062;4.508;2023-02-04T00:51:10;103675.94;;;8.93;77.98
17936;BME280;9093;52.062;4.508;2023-02-04T00:53:50;103675.03;;;8.92;78.11
17936;BME280;9093;52.062;4.508;2023-02-04T00:56:31;103675.03;;;8.92;77.93
17936;BME280;9093;52.062;4.508;2023-02-04T00:59:11;103674.19;;;8.90;78.12
17936;BME280;9093;52.062;4.508;2023-02-04T01:01:51;103671.50;;;8.88;78.06
17936;BME280;9093;52.062;4.508;2023-02-04T01:04:32;103675.06;;;8.89;78.21
17936;BME280;9093;52.062;4.508;2023-02-04T01:07:12;103679.50;;;8.88;78.16
17936;BME280;9093;52.062;4.508;2023-02-04T01:09:52;103675.06;;;8.87;78.41
17936;BME280;9093;52.062;4.508;2023-02-04T01:12:33;103674.16;;;8.88;78.16
17936;BME280;9093;52.062;4.508;2023-02-04T01:15:13;103681.28;;;8.90;78.34
17936;BME280;9093;52.062;4.508;2023-02-04T01:17:54;103675.94;;;8.86;78.35
17936;BME280;9093;52.062;4.508;2023-02-04T01:20:34;103674.16;;;8.85;78.35
17936;BME280;9093;52.062;4.508;2023-02-04T01:23:14;103683.03;;;8.86;78.28
17936;BME280;9093;52.062;4.508;2023-02-04T01:25:55;103684.81;;;8.85;78.38
17936;BME280;9093;52.062;4.508;2023-02-04T01:28:36;103687.50;;;8.84;78.21
17936;BME280;9093;52.062;4.508;2023-02-04T01:31:17;103687.50;;;8.84;78.31
17936;BME280;9093;52.062;4.508;2023-02-04T01:33:57;103692.81;;;8.85;78.43
17936;BME280;9093;52.062;4.508;2023-02-04T01:36:37;103699.94;;;8.85;78.51
17936;BME280;9093;52.062;4.508;2023-02-04T01:39:18;103695.47;;;8.85;78.75
17936;BME280;9093;52.062;4.508;2023-02-04T01:41:58;103700.81;;;8.85;78.38
17936;BME280;9093;52.062;4.508;2023-02-04T01:44:40;103709.69;;;8.87;78.37
17936;BME280;9093;52.062;4.508;2023-02-04T01:47:20;103704.38;;;8.87;78.50
17936;BME280;9093;52.062;4.508;2023-02-04T01:50:01;103713.25;;;8.90;78.49
17936;BME280;9093;52.062;4.508;2023-02-04T01:52:42;103720.38;;;8.91;78.36
17936;BME280;9093;52.062;4.508;2023-02-04T01:55:30;103713.25;;;8.90;78.72
17936;BME280;9093;52.062;4.508;2023-02-04T01:58:11;103716.78;;;8.92;78.53
17936;BME280;9093;52.062;4.508;2023-02-04T02:00:52;103723.91;;;8.90;78.71
17936;BME280;9093;52.062;4.508;2023-02-04T02:03:32;103728.38;;;8.91;78.46
17936;BME280;9093;52.062;4.508;2023-02-04T02:06:12;103731.91;;;8.88;78.63
17936;BME280;9093;52.062;4.508;2023-02-04T02:08:53;103726.56;;;8.88;78.84
17936;BME280;9093;52.062;4.508;2023-02-04T02:11:33;103725.69;;;8.91;78.53
17936;BME280;9093;52.062;4.508;2023-02-04T02:14:14;103720.38;;;8.91;78.85
17936;BME280;9093;52.062;4.508;2023-02-04T02:16:54;103720.34;;;8.87;78.69
17936;BME280;9093;52.062;4.508;2023-02-04T02:19:37;103729.25;;;8.86;78.79
17936;BME280;9093;52.062;4.508;2023-02-04T02:22:22;103735.44;;;8.87;78.65
17936;BME280;9093;52.062;4.508;2023-02-04T02:25:10;103731.00;;;8.87;78.55
17936;BME280;9093;52.062;4.508;2023-02-04T02:27:50;103733.69;;;8.87;78.70
17936;BME280;9093;52.062;4.508;2023-02-04T02:30:31;103731.91;;;8.88;78.78
17936;BME280;9093;52.062;4.508;2023-02-04T02:33:12;103733.69;;;8.86;78.60
17936;BME280;9093;52.062;4.508;2023-02-04T02:35:56;103734.56;;;8.86;78.54
17936;BME280;9093;52.062;4.508;2023-02-04T02:38:37;103736.34;;;8.86;78.51
17936;BME280;9093;52.062;4.508;2023-02-04T02:41:18;103745.22;;;8.86;78.69
17936;BME280;9093;52.062;4.508;2023-02-04T02:43:58;103749.66;;;8.87;78.46
17936;BME280;9093;52.062;4.508;2023-02-04T02:46:39;103748.78;;;8.88;78.53
17936;BME280;9093;52.062;4.508;2023-02-04T02:49:19;103742.56;;;8.88;78.41
17936;BME280;9093;52.062;4.508;2023-02-04T02:52:00;103748.78;;;8.88;78.81
17936;BME280;9093;52.062;4.508;2023-02-04T02:54:41;103752.34;;;8.91;78.56
17936;BME280;9093;52.062;4.508;2023-02-04T02:57:22;103751.44;;;8.92;78.63
17936;BME280;9093;52.062;4.508;2023-02-04T03:00:16;103746.09;;;8.92;78.85
17936;BME280;9093;52.062;4.508;2023-02-04T03:03:09;103759.44;;;8.93;78.67
17936;BME280;9093;52.062;4.508;2023-02-04T03:05:54;103755.88;;;8.93;78.58
17936;BME280;9093;52.062;4.508;2023-02-04T03:08:37;103760.31;;;8.94;78.89
17936;BME280;9093;52.062;4.508;2023-02-04T03:11:17;103756.75;;;8.93;78.59
17936;BME280;9093;52.062;4.508;2023-02-04T03:13:58;103761.22;;;8.93;78.83
17936;BME280;9093;52.062;4.508;2023-02-04T03:16:42;103753.22;;;8.93;78.77
17936;BME280;9093;52.062;4.508;2023-02-04T03:19:24;103760.34;;;8.95;78.84
17936;BME280;9093;52.062;4.508;2023-02-04T03:22:06;103755.88;;;8.96;78.56
17936;BME280;9093;52.062;4.508;2023-02-04T03:24:46;103765.66;;;8.95;78.69
17936;BME280;9093;52.062;4.508;2023-02-04T03:27:27;103753.22;;;8.93;78.98
17936;BME280;9093;52.062;4.508;2023-02-04T03:30:08;103765.66;;;8.92;78.70
17936;BME280;9093;52.062;4.508;2023-02-04T03:32:49;103758.53;;;8.93;78.69
17936;BME280;9093;52.062;4.508;2023-02-04T03:35:29;103759.44;;;8.90;78.97
17936;BME280;9093;52.062;4.508;2023-02-04T03:38:09;103754.09;;;8.92;78.85
17936;BME280;9093;52.062;4.508;2023-02-04T03:40:50;103754.97;;;8.92;78.89
17936;BME280;9093;52.062;4.508;2023-02-04T03:43:30;103748.75;;;8.92;79.10
17936;BME280;9093;52.062;4.508;2023-02-04T03:46:10;103751.47;;;8.90;79.02
17936;BME280;9093;52.062;4.508;2023-02-04T03:48:51;103745.25;;;8.90;78.97
17936;BME280;9093;52.062;4.508;2023-02-04T03:51:31;103747.00;;;8.89;78.83
17936;BME280;9093;52.062;4.508;2023-02-04T03:54:11;103746.13;;;8.87;79.07
17936;BME280;9093;52.062;4.508;2023-02-04T03:56:51;103751.44;;;8.87;78.80
17936;BME280;9093;52.062;4.508;2023-02-04T03:59:32;103746.13;;;8.84;78.71
17936;BME280;9093;52.062;4.508;2023-02-04T04:02:12;103736.34;;;8.81;78.89
17936;BME280;9093;52.062;4.508;2023-02-04T04:04:52;103734.56;;;8.79;78.76
17936;BME280;9093;52.062;4.508;2023-02-04T04:07:33;103730.13;;;8.75;78.85
17936;BME280;9093;52.062;4.508;2023-02-04T04:10:13;103741.69;;;8.69;78.77
17936;BME280;9093;52.062;4.508;2023-02-04T04:12:54;103746.13;;;8.63;78.78
17936;BME280;9093;52.062;4.508;2023-02-04T04:15:35;103754.09;;;8.55;78.70
17936;BME280;9093;52.062;4.508;2023-02-04T04:18:15;103758.53;;;8.48;78.62
17936;BME280;9093;52.062;4.508;2023-02-04T04:20:55;103762.06;;;8.43;78.64
17936;BME280;9093;52.062;4.508;2023-02-04T04:23:36;103770.03;;;8.35;78.51
17936;BME280;9093;52.062;4.508;2023-02-04T04:26:17;103778.03;;;8.31;78.59
17936;BME280;9093;52.062;4.508;2023-02-04T04:28:57;103773.53;;;8.24;78.48
17936;BME280;9093;52.062;4.508;2023-02-04T04:31:37;103775.31;;;8.19;78.59
17936;BME280;9093;52.062;4.508;2023-02-04T04:34:18;103785.06;;;8.20;78.42
17936;BME280;9093;52.062;4.508;2023-02-04T04:36:58;103781.53;;;8.21;78.44
17936;BME280;9093;52.062;4.508;2023-02-04T04:39:38;103791.31;;;8.22;78.58
17936;BME280;9093;52.062;4.508;2023-02-04T04:42:19;103801.94;;;8.25;78.71
17936;BME280;9093;52.062;4.508;2023-02-04T04:44:59;103804.63;;;8.28;78.76
17936;BME280;9093;52.062;4.508;2023-02-04T04:47:39;103795.78;;;8.30;78.26
17936;BME280;9093;52.062;4.508;2023-02-04T04:50:20;103794.91;;;8.33;78.88
17936;BME280;9093;52.062;4.508;2023-02-04T04:53:00;103797.56;;;8.36;78.53
17936;BME280;9093;52.062;4.508;2023-02-04T04:55:40;103798.47;;;8.38;78.82
17936;BME280;9093;52.062;4.508;2023-02-04T04:58:21;103804.69;;;8.40;78.73
17936;BME280;9093;52.062;4.508;2023-02-04T05:01:01;103806.44;;;8.42;78.87
17936;BME280;9093;52.062;4.508;2023-02-04T05:03:41;103802.91;;;8.45;78.70
17936;BME280;9093;52.062;4.508;2023-02-04T05:06:22;103806.47;;;8.45;79.04
17936;BME280;9093;52.062;4.508;2023-02-04T05:09:04;103809.16;;;8.47;78.92
17936;BME280;9093;52.062;4.508;2023-02-04T05:11:44;103810.91;;;8.50;78.86
17936;BME280;9093;52.062;4.508;2023-02-04T05:14:26;103812.69;;;8.52;78.99
17936;BME280;9093;52.062;4.508;2023-02-04T05:17:06;103816.25;;;8.54;78.93
17936;BME280;9093;52.062;4.508;2023-02-04T05:19:46;103808.25;;;8.54;78.97
17936;BME280;9093;52.062;4.508;2023-02-04T05:22:27;103809.16;;;8.56;79.03
17936;BME280;9093;52.062;4.508;2023-02-04T05:25:07;103812.72;;;8.58;79.01
17936;BME280;9093;52.062;4.508;2023-02-04T05:27:48;103809.16;;;8.59;79.16
17936;BME280;9093;52.062;4.508;2023-02-04T05:30:28;103801.16;;;8.61;78.92
17936;BME280;9093;52.062;4.508;2023-02-04T05:33:08;103806.50;;;8.62;79.30
17936;BME280;9093;52.062;4.508;2023-02-04T05:35:49;103822.50;;;8.65;79.04
17936;BME280;9093;52.062;4.508;2023-02-04T05:38:29;103812.72;;;8.69;79.10
17936;BME280;9093;52.062;4.508;2023-02-04T05:41:09;103817.16;;;8.70;79.36
17936;BME280;9093;52.062;4.508;2023-02-04T05:43:49;103814.50;;;8.71;79.29
17936;BME280;9093;52.062;4.508;2023-02-04T05:46:30;103820.72;;;8.73;79.04
17936;BME280;9093;52.062;4.508;2023-02-04T05:49:10;103816.28;;;8.75;79.31
17936;BME280;9093;52.062;4.508;2023-02-04T05:51:51;103819.84;;;8.77;79.15
17936;BME280;9093;52.062;4.508;2023-02-04T05:54:31;103825.19;;;8.77;79.39
17936;BME280;9093;52.062;4.508;2023-02-04T05:57:11;103820.72;;;8.79;79.34
17936;BME280;9093;52.062;4.508;2023-02-04T05:59:52;103821.59;;;8.80;79.21
17936;BME280;9093;52.062;4.508;2023-02-04T06:02:32;103826.94;;;8.81;79.29
17936;BME280;9093;52.062;4.508;2023-02-04T06:05:12;103827.84;;;8.83;79.39
17936;BME280;9093;52.062;4.508;2023-02-04T06:07:53;103832.28;;;8.84;79.12
17936;BME280;9093;52.062;4.508;2023-02-04T06:10:33;103837.63;;;8.84;79.30
17936;BME280;9093;52.062;4.508;2023-02-04T06:13:13;103842.03;;;8.85;79.31
17936;BME280;9093;52.062;4.508;2023-02-04T06:15:54;103844.72;;;8.87;79.49
17936;BME280;9093;52.062;4.508;2023-02-04T06:18:34;103850.03;;;8.88;79.52
17936;BME280;9093;52.062;4.508;2023-02-04T06:21:14;103858.03;;;8.92;79.36
17936;BME280;9093;52.062;4.508;2023-02-04T06:23:55;103851.84;;;8.91;79.53
17936;BME280;9093;52.062;4.508;2023-02-04T06:26:35;103853.59;;;8.91;79.51
17936;BME280;9093;52.062;4.508;2023-02-04T06:29:15;103862.47;;;8.93;79.43
17936;BME280;9093;52.062;4.508;2023-02-04T06:31:56;103849.16;;;8.93;79.36
17936;BME280;9093;52.062;4.508;2023-02-04T06:34:36;103859.81;;;8.94;79.48
17936;BME280;9093;52.062;4.508;2023-02-04T06:37:16;103862.50;;;8.96;79.27
17936;BME280;9093;52.062;4.508;2023-02-04T06:39:57;103864.28;;;8.97;79.46
17936;BME280;9093;52.062;4.508;2023-02-04T06:42:37;103871.38;;;8.98;79.52
17936;BME280;9093;52.062;4.508;2023-02-04T06:45:17;103873.13;;;8.99;79.49
17936;BME280;9093;52.062;4.508;2023-02-04T06:47:57;103876.72;;;8.98;79.59
17936;BME280;9093;52.062;4.508;2023-02-04T06:50:38;103883.81;;;8.99;79.49
17936;BME280;9093;52.062;4.508;2023-02-04T06:53:18;103880.25;;;9.00;79.33
17936;BME280;9093;52.062;4.508;2023-02-04T06:55:58;103890.03;;;9.01;79.45
17936;BME280;9093;52.062;4.508;2023-02-04T06:58:39;103898.03;;;9.01;79.49
17936;BME280;9093;52.062;4.508;2023-02-04T07:01:19;103891.81;;;9.00;79.56
17936;BME280;9093;52.062;4.508;2023-02-04T07:04:00;103894.47;;;9.02;79.81
17936;BME280;9093;52.062;4.508;2023-02-04T07:06:40;103890.03;;;9.02;79.68
17936;BME280;9093;52.062;4.508;2023-02-04T07:09:21;103897.16;;;9.02;79.87
17936;BME280;9093;52.062;4.508;2023-02-04T07:12:01;103896.25;;;9.03;79.64
17936;BME280;9093;52.062;4.508;2023-02-04T07:14:41;103895.38;;;9.02;79.59
17936;BME280;9093;52.062;4.508;2023-02-04T07:17:22;103898.03;;;9.02;79.73
17936;BME280;9093;52.062;4.508;2023-02-04T07:20:02;103890.03;;;9.01;79.95
17936;BME280;9093;52.062;4.508;2023-02-04T07:22:43;103893.59;;;9.00;79.77
17936;BME280;9093;52.062;4.508;2023-02-04T07:25:23;103892.69;;;9.01;79.60
17936;BME280;9093;52.062;4.508;2023-02-04T07:28:04;103904.25;;;9.01;79.77
17936;BME280;9093;52.062;4.508;2023-02-04T07:30:45;103893.59;;;9.00;79.83
17936;BME280;9093;52.062;4.508;2023-02-04T07:33:25;103900.69;;;9.01;79.94
17936;BME280;9093;52.062;4.508;2023-02-04T07:36:06;103902.50;;;9.03;79.73
17936;BME280;9093;52.062;4.508;2023-02-04T07:38:46;103906.91;;;9.04;79.90
17936;BME280;9093;52.062;4.508;2023-02-04T07:41:26;103909.56;;;9.04;79.73
17936;BME280;9093;52.062;4.508;2023-02-04T07:44:07;103906.03;;;9.07;79.92
17936;BME280;9093;52.062;4.508;2023-02-04T07:46:47;103907.81;;;9.08;80.02
17936;BME280;9093;52.062;4.508;2023-02-04T07:49:27;103911.38;;;9.08;79.89
17936;BME280;9093;52.062;4.508;2023-02-04T07:52:08;103911.38;;;9.10;80.09
17936;BME280;9093;52.062;4.508;2023-02-04T07:54:48;103918.47;;;9.14;80.09
17936;BME280;9093;52.062;4.508;2023-02-04T07:57:29;103919.38;;;9.16;80.17
17936;BME280;9093;52.062;4.508;2023-02-04T08:00:10;103915.81;;;9.20;80.14
17936;BME280;9093;52.062;4.508;2023-02-04T08:02:53;103921.13;;;9.17;79.87
17936;BME280;9093;52.062;4.508;2023-02-04T08:05:33;103922.91;;;9.24;79.67
17936;BME280;9093;52.062;4.508;2023-02-04T08:08:13;103921.16;;;9.26;79.86
17936;BME280;9093;52.062;4.508;2023-02-04T08:10:54;103925.59;;;9.32;80.16
17936;BME280;9093;52.062;4.508;2023-02-04T08:13:34;103928.25;;;9.36;79.90
17936;BME280;9093;52.062;4.508;2023-02-04T08:16:14;103930.06;;;9.40;79.88
17936;BME280;9093;52.062;4.508;2023-02-04T08:18:55;103937.16;;;9.44;79.89
17936;BME280;9093;52.062;4.508;2023-02-04T08:21:35;103935.41;;;9.46;79.93
17936;BME280;9093;52.062;4.508;2023-02-04T08:24:16;103940.72;;;9.54;79.81
17936;BME280;9093;52.062;4.508;2023-02-04T08:26:56;103942.50;;;9.58;80.05
17936;BME280;9093;52.062;4.508;2023-02-04T08:29:39;103958.50;;;9.62;80.04
17936;BME280;9093;52.062;4.508;2023-02-04T08:32:19;103950.50;;;9.65;79.88
17936;BME280;9093;52.062;4.508;2023-02-04T08:35:00;103958.50;;;9.68;79.85
17936;BME280;9093;52.062;4.508;2023-02-04T08:37:40;103957.59;;;9.74;79.71
17936;BME280;9093;52.062;4.508;2023-02-04T08:40:20;103969.19;;;9.79;79.71
17936;BME280;9093;52.062;4.508;2023-02-04T08:43:01;103970.94;;;9.83;79.86
17936;BME280;9093;52.062;4.508;2023-02-04T08:45:41;103978.06;;;9.86;79.65
17936;BME280;9093;52.062;4.508;2023-02-04T08:48:21;103980.72;;;9.87;80.01
17936;BME280;9093;52.062;4.508;2023-02-04T08:51:02;103977.16;;;9.88;79.88
17936;BME280;9093;52.062;4.508;2023-02-04T08:53:42;103981.63;;;9.92;79.86
17936;BME280;9093;52.062;4.508;2023-02-04T08:56:23;103976.25;;;9.95;79.81
17936;BME280;9093;52.062;4.508;2023-02-04T08:59:03;103985.19;;;9.99;79.86
17936;BME280;9093;52.062;4.508;2023-02-04T09:01:43;103986.06;;;9.98;80.32
17936;BME280;9093;52.062;4.508;2023-02-04T09:04:28;103984.25;;;10.00;79.92
17936;BME280;9093;52.062;4.508;2023-02-04T09:07:08;103985.16;;;10.02;79.93
17936;BME280;9093;52.062;4.508;2023-02-04T09:09:49;103978.03;;;10.04;79.95
17936;BME280;9093;52.062;4.508;2023-02-04T09:12:29;103982.47;;;10.06;80.19
17936;BME280;9093;52.062;4.508;2023-02-04T09:15:10;103991.38;;;10.10;80.17
17936;BME280;9093;52.062;4.508;2023-02-04T09:17:51;103988.69;;;10.13;79.96
17936;BME280;9093;52.062;4.508;2023-02-04T09:20:40;103995.84;;;10.17;79.92
17936;BME280;9093;52.062;4.508;2023-02-04T09:23:21;103994.94;;;10.21;80.06
17936;BME280;9093;52.062;4.508;2023-02-04T09:26:02;103997.59;;;10.27;80.03
17936;BME280;9093;52.062;4.508;2023-02-04T09:28:45;104002.06;;;10.30;80.04
17936;BME280;9093;52.062;4.508;2023-02-04T09:31:26;104001.13;;;10.32;80.12
17936;BME280;9093;52.062;4.508;2023-02-04T09:34:07;104004.72;;;10.34;80.11
17936;BME280;9093;52.062;4.508;2023-02-04T09:36:47;104006.50;;;10.35;80.18
17936;BME280;9093;52.062;4.508;2023-02-04T09:39:28;104002.94;;;10.35;80.13
17936;BME280;9093;52.062;4.508;2023-02-04T09:42:12;104012.69;;;10.37;80.22
17936;BME280;9093;52.062;4.508;2023-02-04T09:44:53;104006.47;;;10.41;80.20
17936;BME280;9093;52.062;4.508;2023-02-04T09:47:35;104012.69;;;10.43;80.41
17936;BME280;9093;52.062;4.508;2023-02-04T09:50:17;104022.47;;;10.47;80.30
17936;BME280;9093;52.062;4.508;2023-02-04T09:53:02;104020.69;;;10.49;80.52
17936;BME280;9093;52.062;4.508;2023-02-04T09:55:44;104024.25;;;10.52;80.13
17936;BME280;9093;52.062;4.508;2023-02-04T09:58:28;104029.59;;;10.55;80.35
17936;BME280;9093;52.062;4.508;2023-02-04T10:01:15;104027.78;;;10.57;80.35
17936;BME280;9093;52.062;4.508;2023-02-04T10:03:59;104032.25;;;10.59;80.30
17936;BME280;9093;52.062;4.508;2023-02-04T10:06:41;104027.75;;;10.63;80.29
17936;BME280;9093;52.062;4.508;2023-02-04T10:09:23;104029.53;;;10.62;80.35
17936;BME280;9093;52.062;4.508;2023-02-04T10:12:05;104034.00;;;10.66;80.38
17936;BME280;9093;52.062;4.508;2023-02-04T10:14:45;104043.78;;;10.72;80.42
17936;BME280;9093;52.062;4.508;2023-02-04T10:17:26;104051.78;;;10.78;80.29
17936;BME280;9093;52.062;4.508;2023-02-04T10:20:20;104043.75;;;10.78;80.32
17936;BME280;9093;52.062;4.508;2023-02-04T10:23:01;104046.44;;;10.79;80.41
17936;BME280;9093;52.062;4.508;2023-02-04T10:25:42;104042.84;;;10.82;80.51
17936;BME280;9093;52.062;4.508;2023-02-04T10:28:34;104047.28;;;10.83;80.53
17936;BME280;9093;52.062;4.508;2023-02-04T10:31:33;104048.19;;;10.83;80.57
17936;BME280;9093;52.062;4.508;2023-02-04T10:36:56;104046.41;;;10.87;80.53
17936;BME280;9093;52.062;4.508;2023-02-04T10:39:41;104050.84;;;10.91;80.45
17936;BME280;9093;52.062;4.508;2023-02-04T10:42:29;104049.03;;;10.96;80.48
17936;BME280;9093;52.062;4.508;2023-02-04T10:45:27;104045.47;;;10.97;80.36
17936;BME280;9093;52.062;4.508;2023-02-04T10:48:14;104050.78;;;11.03;80.41
17936;BME280;9093;52.062;4.508;2023-02-04T10:50:56;104058.78;;;11.08;80.44
17936;BME280;9093;52.062;4.508;2023-02-04T10:53:37;104050.75;;;11.09;80.52
17936;BME280;9093;52.062;4.508;2023-02-04T10:56:36;104053.38;;;11.17;80.57
17936;BME280;9093;52.062;4.508;2023-02-04T10:59:22;104042.66;;;11.21;80.36
17936;BME280;9093;52.062;4.508;2023-02-04T11:05:15;104043.50;;;11.26;80.50
17936;BME280;9093;52.062;4.508;2023-02-04T11:07:57;104040.84;;;11.29;80.45
17936;BME280;9093;52.062;4.508;2023-02-04T11:10:37;104039.94;;;11.31;80.52
17936;BME280;9093;52.062;4.508;2023-02-04T11:16:26;104042.56;;;11.32;80.53
17936;BME280;9093;52.062;4.508;2023-02-04T11:19:12;104034.53;;;11.35;80.54
17936;BME280;9093;52.062;4.508;2023-02-04T11:22:04;104044.34;;;11.33;80.41
17936;BME280;9093;52.062;4.508;2023-02-04T11:24:45;104041.69;;;11.35;80.63
17936;BME280;9093;52.062;4.508;2023-02-04T11:27:37;104036.34;;;11.33;80.63
17936;BME280;9093;52.062;4.508;2023-02-04T11:30:20;104034.56;;;11.34;80.73
17936;BME280;9093;52.062;4.508;2023-02-04T11:33:04;104034.56;;;11.34;80.51
17936;BME280;9093;52.062;4.508;2023-02-04T11:36:00;104039.94;;;11.31;80.66
17936;BME280;9093;52.062;4.508;2023-02-04T11:38:49;104038.16;;;11.28;80.77
17936;BME280;9093;52.062;4.508;2023-02-04T11:41:30;104033.72;;;11.24;80.95
17936;BME280;9093;52.062;4.508;2023-02-04T11:44:13;104034.63;;;11.21;80.78
17936;BME280;9093;52.062;4.508;2023-02-04T11:46:55;104030.22;;;11.19;80.74
17936;BME280;9093;52.062;4.508;2023-02-04T11:49:36;104032.00;;;11.18;80.65
17936;BME280;9093;52.062;4.508;2023-02-04T11:52:16;104034.63;;;11.20;80.51
17936;BME280;9093;52.062;4.508;2023-02-04T11:54:58;104040.00;;;11.18;80.69
17936;BME280;9093;52.062;4.508;2023-02-04T11:57:41;104034.66;;;11.18;80.66
17936;BME280;9093;52.062;4.508;2023-02-04T12:00:28;104036.44;;;11.15;80.56
17936;BME280;9093;52.062;4.508;2023-02-04T12:03:44;104047.16;;;11.13;80.65
17936;BME280;9093;52.062;4.508;2023-02-04T12:06:28;104039.13;;;11.15;80.55
17936;BME280;9093;52.062;4.508;2023-02-04T12:14:37;104037.31;;;11.20;80.53
17936;BME280;9093;52.062;4.508;2023-02-04T12:17:18;104045.31;;;11.24;80.63
17936;BME280;9093;52.062;4.508;2023-02-04T12:19:59;104044.41;;;11.25;80.52
17936;BME280;9093;52.062;4.508;2023-02-04T12:22:39;104039.97;;;11.21;80.59
17936;BME280;9093;52.062;4.508;2023-02-04T12:25:20;104050.72;;;11.18;80.62
17936;BME280;9093;52.062;4.508;2023-02-04T12:28:00;104042.66;;;11.20;80.64
17936;BME280;9093;52.062;4.508;2023-02-04T12:30:41;104051.56;;;11.22;80.55
17936;BME280;9093;52.062;4.508;2023-02-04T12:33:21;104047.06;;;11.27;80.45
17936;BME280;9093;52.062;4.508;2023-02-04T12:36:02;104054.22;;;11.29;80.63
17936;BME280;9093;52.062;4.508;2023-02-04T12:38:43;104052.41;;;11.32;80.46
17936;BME280;9093;52.062;4.508;2023-02-04T12:41:24;104050.63;;;11.31;80.35
17936;BME280;9093;52.062;4.508;2023-02-04T12:44:04;104043.50;;;11.29;80.39
17936;BME280;9093;52.062;4.508;2023-02-04T12:46:45;104043.50;;;11.26;80.24
17936;BME280;9093;52.062;4.508;2023-02-04T12:49:25;104041.72;;;11.25;80.40
17936;BME280;9093;52.062;4.508;2023-02-04T12:52:05;104039.06;;;11.27;80.39
17936;BME280;9093;52.062;4.508;2023-02-04T12:54:46;104047.06;;;11.32;80.17
17936;BME280;9093;52.062;4.508;2023-02-04T12:57:26;104037.22;;;11.34;80.34
17936;BME280;9093;52.062;4.508;2023-02-04T13:00:07;104034.53;;;11.37;80.08
17936;BME280;9093;52.062;4.508;2023-02-04T13:02:48;104038.06;;;11.42;80.39
17936;BME280;9093;52.062;4.508;2023-02-04T13:05:28;104037.16;;;11.46;80.37
17936;BME280;9093;52.062;4.508;2023-02-04T13:08:08;104034.41;;;11.52;80.18
17936;BME280;9093;52.062;4.508;2023-02-04T13:10:49;104027.28;;;11.54;80.17
17936;BME280;9093;52.062;4.508;2023-02-04T13:13:31;104033.47;;;11.59;80.18
17936;BME280;9093;52.062;4.508;2023-02-04T13:16:11;104037.94;;;11.60;80.25
17936;BME280;9093;52.062;4.508;2023-02-04T13:18:51;104022.78;;;11.62;80.12
17936;BME280;9093;52.062;4.508;2023-02-04T13:21:32;104027.19;;;11.66;80.16
17936;BME280;9093;52.062;4.508;2023-02-04T13:24:12;104009.28;;;11.71;80.34
17936;BME280;9093;52.062;4.508;2023-02-04T13:26:52;104014.63;;;11.77;80.29
17936;BME280;9093;52.062;4.508;2023-02-04T13:29:33;104015.50;;;11.82;80.33
17936;BME280;9093;52.062;4.508;2023-02-04T13:32:13;104012.78;;;11.88;80.26
17936;BME280;9093;52.062;4.508;2023-02-04T13:34:53;104016.25;;;11.96;80.27
17936;BME280;9093;52.062;4.508;2023-02-04T13:37:33;104010.00;;;11.99;80.16
17936;BME280;9093;52.062;4.508;2023-02-04T13:40:14;104021.53;;;12.02;80.29
17936;BME280;9093;52.062;4.508;2023-02-04T13:42:57;104021.53;;;12.02;80.23
17936;BME280;9093;52.062;4.508;2023-02-04T13:45:37;104017.97;;;12.03;80.22
17936;BME280;9093;52.062;4.508;2023-02-04T13:48:19;104009.09;;;12.00;80.22
17936;BME280;9093;52.062;4.508;2023-02-04T13:50:59;104000.19;;;11.96;80.28
17936;BME280;9093;52.062;4.508;2023-02-04T13:53:39;104009.16;;;11.92;80.25
17936;BME280;9093;52.062;4.508;2023-02-04T13:56:20;104009.16;;;11.89;80.29
17936;BME280;9093;52.062;4.508;2023-02-04T13:59:00;104015.47;;;11.87;80.22
17936;BME280;9093;52.062;4.508;2023-02-04T14:01:40;104011.00;;;11.84;80.34
17936;BME280;9093;52.062;4.508;2023-02-04T14:04:21;104016.34;;;11.84;80.06
17936;BME280;9093;52.062;4.508;2023-02-04T14:07:01;104016.34;;;11.84;80.03
17936;BME280;9093;52.062;4.508;2023-02-04T14:09:41;104012.78;;;11.84;80.07
17936;BME280;9093;52.062;4.508;2023-02-04T14:12:21;104019.94;;;11.83;80.09
17936;BME280;9093;52.062;4.508;2023-02-04T14:15:02;104014.56;;;11.83;79.99
17936;BME280;9093;52.062;4.508;2023-02-04T14:17:42;104020.88;;;11.82;80.03
17936;BME280;9093;52.062;4.508;2023-02-04T14:20:23;104013.72;;;11.81;79.95
17936;BME280;9093;52.062;4.508;2023-02-04T14:23:04;104018.19;;;11.82;79.77
17936;BME280;9093;52.062;4.508;2023-02-04T14:25:45;104011.94;;;11.82;79.77
17936;BME280;9093;52.062;4.508;2023-02-04T14:28:25;104012.84;;;11.82;79.91
17936;BME280;9093;52.062;4.508;2023-02-04T14:31:05;104012.84;;;11.81;79.94
17936;BME280;9093;52.062;4.508;2023-02-04T14:33:46;104009.25;;;11.80;79.99
17936;BME280;9093;52.062;4.508;2023-02-04T14:36:26;104015.53;;;11.78;79.74